Time;durP1;ratioP1;P1;durP2;ratioP2;P2;SDS_P1;SDS_P2;PMS_P1;PMS_P2;Temp;Humidity;BMP_temperature;BMP_pressure;BME280_temperature;BME280_humidity;BME280_pressure;Samples;Min_cycle;Max_cycle;Signal;HPM_P1;HPM_P2
2021/05/02 00:36:21;;;;;;;358.30;116.93;;;9.20;99.90;;;;;;2005089;23;20721;-94
2021/05/02 00:39:02;;;;;;;378.60;115.43;;;9.30;99.90;;;;;;4907264;29;20484;-96
2021/05/02 00:41:58;;;;;;;417.30;120.50;;;9.30;99.90;;;;;;4929448;29;20513;-95
2021/05/02 00:44:50;;;;;;;494.52;127.38;;;9.30;99.90;;;;;;4926478;29;20429;-95
2021/05/02 00:47:44;;;;;;;396.88;117.80;;;9.20;99.90;;;;;;4912179;29;20496;-96
2021/05/02 00:50:28;;;;;;;327.00;109.88;;;9.20;99.90;;;;;;4925657;29;20480;-95
2021/05/02 01:04:30;;;;;;;1999.90;245.50;;;9.40;99.90;;;;;;4938583;29;20416;-95
2021/05/02 01:07:22;;;;;;;1999.90;234.05;;;9.30;99.90;;;;;;4925288;29;20437;-96
2021/05/02 01:10:16;;;;;;;1999.90;189.90;;;9.30;99.90;;;;;;4918796;29;20925;-96
2021/05/02 01:12:48;;;;;;;233.82;90.32;;;9.30;99.90;;;;;;4919677;29;20448;-96
2021/05/02 01:23:00;;;;;;;1999.90;196.18;;;9.30;99.90;;;;;;4903240;29;20468;-96
2021/05/02 01:25:31;;;;;;;1999.90;222.40;;;9.30;99.90;;;;;;4902761;29;20461;-95
2021/05/02 01:28:02;;;;;;;1999.90;148.80;;;9.20;99.90;;;;;;4904086;29;20493;-95
2021/05/02 01:35:12;;;;;;;1900.40;78.05;;;9.10;99.90;;;;;;4845177;29;20417;-96
2021/05/02 01:38:06;;;;;;;1472.60;74.07;;;9.10;99.90;;;;;;4845244;29;20457;-95
2021/05/02 01:52:31;;;;;;;;;;;;;;;;;;;;;
2021/05/02 02:02:46;;;;;;;969.75;44.75;;;8.80;99.90;;;;;;4946560;29;20431;-94
2021/05/02 02:05:39;;;;;;;939.22;48.63;;;8.60;99.90;;;;;;5079515;23;20463;-93
2021/05/02 02:09:11;;;;;;;1852.35;84.75;;;8.40;99.90;;;;;;4921253;29;20457;-95
2021/05/02 02:11:41;;;;;;;1290.28;69.93;;;8.40;99.90;;;;;;4902784;29;20543;-94
2021/05/02 02:14:17;;;;;;;978.35;43.53;;;8.30;99.90;;;;;;4901954;29;20541;-95
2021/05/02 02:16:59;;;;;;;24.05;5.18;;;8.20;99.90;;;;;;4901398;29;20439;-94
2021/05/02 02:20:04;;;;;;;;;;;;;;;;;;;;;
2021/05/02 02:23:12;;;;;;;26.15;4.80;;;8.10;99.90;;;;;;4901493;29;20458;-92
2021/05/02 02:26:30;;;;;;;3.67;2.42;;;8.00;99.90;;;;;;4889610;29;20467;-96
2021/05/02 02:29:06;;;;;;;9.93;4.53;;;8.00;99.90;;;;;;4887302;29;20757;-94
2021/05/02 02:31:54;;;;;;;811.72;38.60;;;8.00;99.90;;;;;;4886703;29;20451;-93
2021/05/02 02:39:28;;;;;;;1051.78;38.53;;;8.00;99.90;;;;;;4873360;29;20432;-94
2021/05/02 03:04:51;;;;;;;;;;;;;;;;;;;;;
2021/05/02 03:52:28;;;;;;;3.33;1.58;;;6.40;99.90;;;;;;5047963;23;20449;-95
2021/05/02 04:27:52;;;;;;;6.80;2.05;;;6.10;99.90;;;;;;4932873;29;20412;-95
2021/05/02 04:35:05;;;;;;;5.40;3.22;;;5.90;99.90;;;;;;4966408;29;20416;-95
2021/05/02 05:04:51;;;;;;;8.23;3.25;;;5.60;99.90;;;;;;5073962;23;20453;-95
2021/05/02 05:12:25;;;;;;;5.10;2.33;;;5.40;99.90;;;;;;5070956;23;20442;-94
2021/05/02 05:40:34;;;;;;;93.57;6.95;;;4.70;99.90;;;;;;5392283;23;20524;-94
2021/05/02 05:43:37;;;;;;;280.50;16.40;;;4.70;99.90;;;;;;4954120;29;20456;-95
2021/05/02 05:46:45;;;;;;;14.25;3.13;;;4.60;99.90;;;;;;4945009;23;20426;-93
2021/05/02 05:53:23;;;;;;;18.67;3.75;;;4.50;99.90;;;;;;4887951;29;20511;-94
2021/05/02 05:55:58;;;;;;;20.90;4.75;;;4.50;99.90;;;;;;5126916;23;20418;-95
2021/05/02 05:58:48;;;;;;;4.65;2.03;;;4.40;99.90;;;;;;4960709;29;20418;-96
2021/05/02 06:05:32;;;;;;;52.10;4.70;;;4.30;99.90;;;;;;4961130;29;20393;-94
2021/05/02 06:12:51;;;;;;;8.18;3.92;;;4.30;99.90;;;;;;4910867;29;20426;-96
2021/05/02 06:23:13;;;;;;;5.33;2.47;;;4.20;99.90;;;;;;4967858;28;20425;-96
2021/05/02 06:25:41;;;;;;;5.95;2.70;;;4.20;99.90;;;;;;4969025;29;20506;-96
2021/05/02 06:28:14;;;;;;;9.27;1.80;;;4.20;99.90;;;;;;4935917;29;20893;-95
2021/05/02 06:30:44;;;;;;;3.22;2.00;;;4.20;99.90;;;;;;4936714;29;20430;-96
2021/05/02 06:33:20;;;;;;;4.38;2.28;;;4.20;99.90;;;;;;4954183;29;20509;-96
2021/05/02 06:35:59;;;;;;;4.35;2.30;;;4.20;99.90;;;;;;4950925;29;20430;-95
2021/05/02 06:41:54;;;;;;;8.23;4.05;;;4.20;99.90;;;;;;1080313;23;20650;-93
2021/05/02 06:49:10;;;;;;;400.80;23.88;;;4.20;99.90;;;;;;4952827;29;20496;-94
2021/05/02 06:51:57;;;;;;;540.47;25.42;;;4.20;99.90;;;;;;4955234;29;20432;-95
2021/05/02 06:55:13;;;;;;;5.45;2.95;;;4.20;99.90;;;;;;4911424;29;20433;-95
2021/05/02 06:58:04;;;;;;;10.20;4.50;;;4.20;99.90;;;;;;4894721;29;20513;-96
2021/05/02 07:00:40;;;;;;;427.85;17.65;;;4.20;99.90;;;;;;4888895;29;21017;-94
2021/05/02 07:03:10;;;;;;;86.63;5.93;;;4.20;99.90;;;;;;4889615;29;20434;-94
2021/05/02 07:06:09;;;;;;;242.60;12.80;;;4.20;99.90;;;;;;4904713;29;20415;-95
2021/05/02 07:08:43;;;;;;;840.83;41.63;;;4.10;99.90;;;;;;4887410;29;20451;-95
2021/05/02 07:11:09;;;;;;;1045.28;52.60;;;4.20;99.90;;;;;;4890362;29;20454;-92
2021/05/02 07:13:36;;;;;;;927.65;48.40;;;4.20;99.90;;;;;;4885964;29;20427;-93
2021/05/02 07:16:03;;;;;;;331.70;18.60;;;4.20;99.90;;;;;;4884047;29;20430;-93
2021/05/02 07:18:34;;;;;;;10.60;3.13;;;4.20;99.90;;;;;;4900204;29;20431;-94
2021/05/02 07:21:02;;;;;;;8.07;4.57;;;4.20;99.90;;;;;;4897687;29;20430;-95
2021/05/02 07:27:12;;;;;;;7.65;3.55;;;4.30;99.90;;;;;;4927262;29;20415;-96
2021/05/02 07:37:34;;;;;;;8.70;4.07;;;4.30;99.90;;;;;;4951570;29;20435;-95
2021/05/02 07:43:33;;;;;;;83.73;7.43;;;4.30;99.90;;;;;;4952030;29;20414;-95
2021/05/02 07:46:18;;;;;;;17.87;5.63;;;4.20;99.90;;;;;;4934927;29;20416;-95
2021/05/02 07:48:58;;;;;;;413.35;23.52;;;4.10;99.90;;;;;;4935267;29;20423;-95
2021/05/02 07:51:36;;;;;;;7.95;4.30;;;4.10;99.90;;;;;;5210186;23;21512;-93
2021/05/02 07:54:21;;;;;;;3.72;1.90;;;4.20;99.90;;;;;;4961704;28;20421;-95
2021/05/02 08:03:37;;;;;;;3.90;2.22;;;4.20;99.90;;;;;;4948926;29;20398;-95
2021/05/02 08:06:26;;;;;;;3.85;2.40;;;4.20;99.90;;;;;;4953453;29;20428;-94
2021/05/02 08:09:17;;;;;;;4.07;2.55;;;4.10;99.90;;;;;;4935786;29;20540;-95
2021/05/02 08:15:18;;;;;;;2.72;1.77;;;4.00;99.90;;;;;;4938714;29;20425;-94
2021/05/02 08:17:50;;;;;;;2.70;1.80;;;4.20;99.90;;;;;;4937061;29;20444;-95
2021/05/02 08:20:34;;;;;;;3.22;1.80;;;4.40;99.90;;;;;;4947540;29;20420;-95
2021/05/02 08:23:04;;;;;;;2.03;1.30;;;4.50;99.90;;;;;;4918241;29;20439;-95
2021/05/02 08:25:40;;;;;;;2.67;1.75;;;4.50;99.90;;;;;;4935803;29;20424;-95
2021/05/02 08:28:38;;;;;;;1.70;1.40;;;4.50;99.90;;;;;;4948522;29;20479;-94
2021/05/02 08:34:58;;;;;;;2.30;1.30;;;4.30;99.90;;;;;;4977218;28;20413;-95
2021/05/02 08:37:51;;;;;;;1.00;0.90;;;4.30;99.90;;;;;;4957263;29;20984;-94
2021/05/02 08:40:35;;;;;;;2.33;1.90;;;4.20;99.90;;;;;;4974323;29;20417;-94
2021/05/02 08:43:49;;;;;;;2.50;1.15;;;4.40;99.90;;;;;;4954367;28;20633;-95
2021/05/02 08:46:16;;;;;;;2.63;1.97;;;4.30;99.90;;;;;;4853910;29;20526;-95
2021/05/02 08:48:43;;;;;;;3.53;2.30;;;4.20;99.90;;;;;;4850577;29;20438;-95
2021/05/02 08:51:10;;;;;;;183.43;9.73;;;4.30;99.90;;;;;;4852367;29;20442;-95
2021/05/02 08:53:40;;;;;;;289.92;16.02;;;4.30;99.90;;;;;;4853883;29;20502;-95
2021/05/02 08:56:11;;;;;;;72.73;5.30;;;4.30;99.90;;;;;;4851341;29;20478;-94
2021/05/02 08:58:48;;;;;;;1.30;0.98;;;4.10;99.90;;;;;;4849364;29;20977;-96
2021/05/02 09:01:28;;;;;;;91.60;6.00;;;4.00;99.90;;;;;;4849220;29;20459;-94
2021/05/02 09:03:55;;;;;;;7.03;1.95;;;4.00;99.90;;;;;;4848645;29;20457;-94
2021/05/02 09:06:28;;;;;;;2.43;1.90;;;4.00;99.90;;;;;;4849670;29;20442;-94
2021/05/02 09:09:04;;;;;;;6.18;1.73;;;4.00;99.90;;;;;;4853900;29;20434;-94
2021/05/02 09:11:41;;;;;;;5.13;2.40;;;4.00;99.90;;;;;;4847287;29;20446;-93
2021/05/02 09:14:31;;;;;;;1.57;1.20;;;4.00;99.90;;;;;;4855021;29;20453;-95
2021/05/02 09:19:51;;;;;;;4.03;2.50;;;4.00;99.90;;;;;;4960202;28;20434;-93
2021/05/02 09:22:19;;;;;;;4.53;2.80;;;4.10;99.90;;;;;;4925726;29;20435;-94
2021/05/02 09:25:10;;;;;;;3.50;2.70;;;4.10;99.90;;;;;;4939131;29;20427;-93
2021/05/02 09:27:49;;;;;;;3.60;2.40;;;4.10;99.90;;;;;;4943043;29;20464;-95
2021/05/02 09:30:21;;;;;;;2.53;2.33;;;4.20;99.90;;;;;;4949818;28;20410;-95
2021/05/02 09:32:49;;;;;;;2.53;1.58;;;4.30;99.90;;;;;;4956000;28;20458;-94
2021/05/02 09:35:25;;;;;;;3.67;2.20;;;4.30;99.90;;;;;;4958812;28;20506;-95
2021/05/02 09:38:17;;;;;;;2.97;2.40;;;4.30;99.90;;;;;;4953083;28;20471;-94
2021/05/02 09:40:48;;;;;;;2.75;2.20;;;4.30;99.90;;;;;;4953434;29;20426;-94
2021/05/02 09:43:43;;;;;;;2.75;2.20;;;4.30;99.90;;;;;;4949100;29;20457;-93
2021/05/02 09:46:49;;;;;;;2.33;2.00;;;4.20;99.90;;;;;;4947087;29;20459;-95
2021/05/02 09:49:25;;;;;;;2.17;1.85;;;4.20;99.90;;;;;;4970559;28;20453;-96
2021/05/02 09:52:00;;;;;;;2.47;2.10;;;4.20;99.90;;;;;;4950799;29;20494;-95
2021/05/02 09:54:31;;;;;;;3.67;2.80;;;4.10;99.90;;;;;;4941661;29;20526;-96
2021/05/02 09:57:06;;;;;;;2.63;2.10;;;4.20;99.90;;;;;;4958063;29;20451;-95
2021/05/02 09:59:56;;;;;;;3.47;2.60;;;4.10;99.90;;;;;;4937588;29;20749;-95
2021/05/02 10:02:39;;;;;;;2.67;2.35;;;4.10;99.90;;;;;;4973358;28;20604;-95
2021/05/02 10:05:15;;;;;;;2.58;2.05;;;4.10;99.90;;;;;;4965270;28;20426;-96
2021/05/02 10:07:47;;;;;;;3.20;2.43;;;4.10;99.90;;;;;;4947016;29;20487;-94
2021/05/02 10:10:48;;;;;;;3.22;2.55;;;4.20;99.90;;;;;;4951059;29;20422;-95
2021/05/02 10:13:30;;;;;;;3.92;3.25;;;4.30;99.90;;;;;;4952213;29;20449;-94
2021/05/02 10:16:04;;;;;;;4.20;2.90;;;4.30;99.90;;;;;;4947884;28;20431;-95
2021/05/02 10:18:52;;;;;;;3.55;3.17;;;4.30;99.90;;;;;;4963414;29;20418;-96
2021/05/02 10:25:18;;;;;;;2.75;2.30;;;4.40;99.90;;;;;;4959495;28;20619;-95
2021/05/02 10:27:54;;;;;;;2.78;1.67;;;4.40;99.90;;;;;;4933997;29;20915;-94
2021/05/02 10:30:38;;;;;;;3.03;2.33;;;4.40;99.90;;;;;;4942507;29;20423;-93
2021/05/02 10:33:10;;;;;;;1.93;1.53;;;4.50;99.90;;;;;;4941005;29;20427;-95
2021/05/02 10:35:54;;;;;;;3.17;1.80;;;4.50;99.90;;;;;;4924682;29;20467;-94
2021/05/02 10:38:42;;;;;;;2.33;2.13;;;4.60;99.90;;;;;;4939787;29;20899;-94
2021/05/02 10:41:28;;;;;;;2.88;2.58;;;4.60;99.90;;;;;;4940625;29;20439;-94
2021/05/02 10:44:19;;;;;;;2.60;2.20;;;4.60;99.90;;;;;;4938606;29;20435;-96
2021/05/02 10:46:53;;;;;;;2.65;2.22;;;4.70;99.90;;;;;;4940289;29;20505;-95
2021/05/02 10:49:27;;;;;;;3.38;2.70;;;4.80;99.90;;;;;;4942965;29;20428;-96
2021/05/02 10:52:45;;;;;;;3.33;2.78;;;5.00;99.90;;;;;;4910011;29;20444;-95
2021/05/02 10:55:18;;;;;;;8.13;2.63;;;5.10;99.90;;;;;;4905690;29;20649;-95
2021/05/02 10:58:15;;;;;;;3.20;2.83;;;5.20;99.90;;;;;;4906617;29;20501;-95
2021/05/02 11:00:59;;;;;;;2.67;2.38;;;5.40;99.90;;;;;;4891524;29;20433;-95
2021/05/02 11:03:40;;;;;;;2.88;2.45;;;5.40;99.90;;;;;;4903702;29;20865;-95
2021/05/02 11:06:59;;;;;;;3.50;1.70;;;5.40;99.90;;;;;;4904838;29;20841;-95
2021/05/02 11:09:55;;;;;;;2.95;2.50;;;5.30;99.90;;;;;;4878676;29;20505;-95
2021/05/02 11:12:27;;;;;;;3.20;2.70;;;5.30;99.90;;;;;;4885240;29;20536;-95
2021/05/02 11:14:56;;;;;;;2.22;1.83;;;5.40;99.90;;;;;;4868945;29;20544;-95
2021/05/02 11:17:44;;;;;;;2.05;1.33;;;5.50;99.90;;;;;;4873389;29;20507;-94
2021/05/02 11:24:19;;;;;;;3.17;2.40;;;5.50;99.90;;;;;;4940977;29;20407;-96
2021/05/02 11:30:21;;;;;;;3.30;2.80;;;5.40;99.90;;;;;;4939934;29;20419;-95
2021/05/02 11:33:20;;;;;;;3.70;2.83;;;5.40;99.90;;;;;;4860308;29;20465;-96
2021/05/02 11:36:03;;;;;;;3.33;2.78;;;5.40;99.90;;;;;;4870347;29;20815;-95
2021/05/02 11:38:40;;;;;;;8.82;5.32;;;5.20;99.90;;;;;;4868543;29;20483;-96
2021/05/02 11:41:09;;;;;;;4.53;3.83;;;5.20;99.90;;;;;;4873047;29;20469;-95
2021/05/02 11:43:39;;;;;;;5.10;3.88;;;5.10;99.90;;;;;;4871313;29;20452;-96
2021/05/02 11:46:17;;;;;;;5.07;4.25;;;5.20;99.90;;;;;;4868563;29;20421;-96
2021/05/02 11:48:50;;;;;;;4.60;3.90;;;5.10;99.90;;;;;;4870740;29;20801;-96
2021/05/02 11:51:23;;;;;;;4.80;4.03;;;5.20;99.90;;;;;;4869281;29;20475;-95
2021/05/02 11:53:55;;;;;;;4.55;3.70;;;5.40;99.90;;;;;;4869788;29;20520;-95
2021/05/02 11:56:29;;;;;;;4.87;4.27;;;5.50;99.90;;;;;;4870733;29;20467;-95
2021/05/02 11:59:01;;;;;;;5.63;4.00;;;5.50;99.90;;;;;;4872032;29;20440;-96
2021/05/02 12:01:30;;;;;;;5.43;4.43;;;5.50;99.90;;;;;;4876687;29;20419;-96
2021/05/02 12:04:08;;;;;;;6.32;3.83;;;5.30;99.90;;;;;;4882693;29;20440;-94
2021/05/02 12:06:37;;;;;;;7.13;5.32;;;5.10;99.90;;;;;;4872190;29;20516;-96
2021/05/02 12:09:17;;;;;;;8.13;6.03;;;5.00;99.90;;;;;;4871183;29;20492;-95
2021/05/02 12:11:53;;;;;;;7.13;4.90;;;5.00;99.90;;;;;;4940334;29;20526;-95
2021/05/02 12:14:28;;;;;;;10.75;7.65;;;4.90;99.90;;;;;;4943366;29;20454;-94
2021/05/02 12:16:57;;;;;;;12.13;8.33;;;4.90;99.90;;;;;;4958658;28;20448;-96
2021/05/02 12:19:28;;;;;;;14.27;8.48;;;4.90;99.90;;;;;;4953616;28;20485;-95
2021/05/02 12:21:56;;;;;;;9.27;5.90;;;4.90;99.90;;;;;;4923702;29;20855;-95
2021/05/02 12:24:32;;;;;;;13.15;8.02;;;5.00;99.90;;;;;;4943237;29;20440;-94
2021/05/02 12:27:01;;;;;;;16.70;7.85;;;4.90;99.90;;;;;;4939486;29;20424;-95
2021/05/02 12:29:34;;;;;;;12.77;8.15;;;4.90;99.90;;;;;;4944471;29;20433;-95
2021/05/02 12:32:11;;;;;;;18.65;13.05;;;4.80;99.90;;;;;;4944864;29;20449;-96
2021/05/02 12:34:46;;;;;;;18.83;13.20;;;4.80;99.90;;;;;;4943107;29;20486;-95
2021/05/02 12:37:23;;;;;;;15.88;10.85;;;4.70;99.90;;;;;;4943983;29;20455;-96
2021/05/02 12:40:06;;;;;;;12.10;7.13;;;4.70;99.90;;;;;;4925689;29;20428;-96
2021/05/02 12:42:35;;;;;;;14.45;8.60;;;4.60;99.90;;;;;;4945764;29;20488;-95
2021/05/02 12:45:07;;;;;;;11.05;7.30;;;4.60;99.90;;;;;;4945461;29;20426;-94
2021/05/02 12:47:50;;;;;;;13.93;8.90;;;4.60;99.90;;;;;;4941879;29;20506;-96
2021/05/02 12:50:23;;;;;;;12.40;7.47;;;4.60;99.90;;;;;;4943755;29;20929;-96
2021/05/02 12:52:55;;;;;;;11.95;6.47;;;4.60;99.90;;;;;;4939807;29;20455;-96
2021/05/02 12:55:30;;;;;;;24.70;14.20;;;4.50;99.90;;;;;;4943504;29;20426;-95
2021/05/02 12:58:04;;;;;;;19.88;12.73;;;4.40;99.90;;;;;;4939955;29;20463;-96
2021/05/02 13:04:21;;;;;;;12.65;8.40;;;4.50;99.90;;;;;;4959616;29;20558;-96
2021/05/02 13:06:49;;;;;;;18.63;12.23;;;4.50;99.90;;;;;;4941592;29;20492;-96
2021/05/02 13:09:20;;;;;;;12.68;7.68;;;4.50;99.90;;;;;;4960701;29;20421;-96
2021/05/02 13:12:14;;;;;;;19.13;12.70;;;4.50;99.90;;;;;;4942129;29;20446;-96
2021/05/02 13:15:11;;;;;;;19.35;11.60;;;4.50;99.90;;;;;;4941493;29;20466;-95
2021/05/02 13:18:20;;;;;;;23.23;15.15;;;4.40;99.90;;;;;;4941066;29;20423;-96
2021/05/02 13:21:02;;;;;;;16.20;10.10;;;4.40;99.90;;;;;;4940335;29;20439;-94
2021/05/02 13:23:34;;;;;;;16.92;9.05;;;4.40;99.90;;;;;;4926049;29;20499;-95
2021/05/02 13:26:33;;;;;;;;;;;;;;;;;;;;;
2021/05/02 13:29:11;;;;;;;20.20;13.93;;;4.30;99.90;;;;;;4964061;28;20429;-96
2021/05/02 13:32:06;;;;;;;24.38;14.85;;;4.30;99.90;;;;;;4975689;23;21292;-96
2021/05/02 13:57:16;;;;;;;14.63;9.80;;;4.50;99.90;;;;;;4846434;29;20432;-95
2021/05/02 13:59:55;;;;;;;16.15;10.73;;;4.40;99.90;;;;;;4937836;23;20430;-94
2021/05/02 14:03:03;;;;;;;21.52;14.65;;;4.40;99.90;;;;;;4945509;28;20430;-96
2021/05/02 14:26:30;;;;;;;19.55;14.52;;;4.40;99.90;;;;;;5391401;23;20457;-96
2021/05/02 14:46:09;;;;;;;18.60;14.00;;;4.50;99.90;;;;;;6064838;23;21845;31
2021/05/02 14:53:24;;;;;;;18.25;12.13;;;4.40;99.90;;;;;;4913015;29;20458;-95
2021/05/02 15:09:53;;;;;;;18.10;14.02;;;4.30;99.90;;;;;;4869543;29;20409;-96
2021/05/02 15:12:40;;;;;;;10.10;6.72;;;4.30;99.90;;;;;;4876581;29;20444;-95
2021/05/02 15:15:21;;;;;;;19.88;15.30;;;4.30;99.90;;;;;;4885581;29;20440;-96
2021/05/02 15:21:38;;;;;;;21.38;16.80;;;4.30;99.90;;;;;;4886043;29;20427;-95
2021/05/02 15:24:15;;;;;;;20.73;14.13;;;4.40;99.90;;;;;;4931584;23;20435;-95
2021/05/02 15:26:50;;;;;;;24.15;16.85;;;4.40;99.90;;;;;;4987821;28;20478;-96
2021/05/02 15:29:23;;;;;;;21.65;15.13;;;4.50;99.90;;;;;;5004040;23;20439;-96
2021/05/02 15:39:09;;;;;;;19.20;14.10;;;4.50;99.90;;;;;;4893953;29;20580;-95
2021/05/02 15:41:51;;;;;;;19.65;13.77;;;4.60;99.90;;;;;;4880753;29;20472;-95
2021/05/02 15:44:18;;;;;;;20.53;15.47;;;4.50;99.90;;;;;;4879974;29;20440;-96
2021/05/02 15:50:32;;;;;;;23.00;15.77;;;4.40;99.90;;;;;;4930014;23;20455;-95
2021/05/02 15:53:00;;;;;;;19.90;14.90;;;4.40;99.90;;;;;;4948019;29;20439;-95
2021/05/02 15:55:31;;;;;;;21.02;16.33;;;4.40;99.90;;;;;;4936429;29;20762;-96
2021/05/02 15:58:24;;;;;;;20.05;14.30;;;4.40;99.90;;;;;;4956455;29;20441;-95
2021/05/02 16:00:51;;;;;;;17.42;12.13;;;4.50;99.90;;;;;;4951918;29;20424;-96
2021/05/02 16:07:06;;;;;;;21.50;15.68;;;4.40;99.90;;;;;;4975493;28;20465;-96
2021/05/02 16:10:09;;;;;;;16.70;11.68;;;4.50;99.90;;;;;;5432926;23;20458;-95
2021/05/02 16:12:50;;;;;;;18.25;12.65;;;4.40;99.90;;;;;;4943251;29;20513;-94
2021/05/02 16:15:26;;;;;;;23.05;16.50;;;4.40;99.90;;;;;;4951622;29;20507;-96
2021/05/02 16:18:14;;;;;;;23.73;16.13;;;4.30;99.90;;;;;;4971384;29;20433;-96
2021/05/02 16:21:04;;;;;;;20.85;15.93;;;4.20;99.90;;;;;;4950530;29;20519;-95
2021/05/02 16:23:37;;;;;;;22.00;16.67;;;4.20;99.90;;;;;;4936034;29;20447;-96
2021/05/02 16:26:05;;;;;;;23.63;18.47;;;4.20;99.90;;;;;;4933985;29;20466;-96
2021/05/02 16:28:38;;;;;;;23.83;17.55;;;4.30;99.90;;;;;;4939460;29;20419;-95
2021/05/02 16:31:14;;;;;;;24.30;16.83;;;4.40;99.90;;;;;;4941775;29;20470;-96
2021/05/02 16:33:43;;;;;;;20.08;15.05;;;4.50;99.90;;;;;;4939158;29;20876;-96
2021/05/02 16:36:11;;;;;;;18.63;14.13;;;4.50;99.90;;;;;;4929805;29;20439;-96
2021/05/02 16:38:38;;;;;;;17.80;12.50;;;4.60;99.90;;;;;;4944829;29;20910;-94
2021/05/02 16:41:05;;;;;;;18.00;12.18;;;4.60;99.90;;;;;;4913714;29;20451;-95
2021/05/02 16:43:32;;;;;;;16.23;12.75;;;4.60;99.90;;;;;;4925128;29;20466;-96
2021/05/02 16:46:09;;;;;;;14.60;10.05;;;4.50;99.90;;;;;;4940445;29;20424;-96
2021/05/02 16:49:01;;;;;;;14.57;9.88;;;4.40;99.90;;;;;;4943780;29;20411;-94
2021/05/02 16:51:29;;;;;;;18.00;13.77;;;4.40;99.90;;;;;;4945601;29;20440;-96
2021/05/02 16:57:52;;;;;;;17.95;12.70;;;4.50;99.90;;;;;;4962002;29;20401;-95
2021/05/02 17:00:19;;;;;;;19.25;15.70;;;4.50;99.90;;;;;;4943849;29;20432;-95
2021/05/02 17:02:47;;;;;;;18.97;14.90;;;4.50;99.90;;;;;;4939989;29;20507;-95
2021/05/02 17:05:15;;;;;;;19.73;14.38;;;4.60;99.90;;;;;;4941856;29;20783;-96
2021/05/02 17:07:47;;;;;;;19.90;15.57;;;4.60;99.90;;;;;;4940199;29;20427;-94
2021/05/02 17:10:16;;;;;;;18.48;13.52;;;4.60;99.90;;;;;;4943262;29;20463;-95
2021/05/02 17:12:44;;;;;;;20.73;14.93;;;4.50;99.90;;;;;;4940698;29;20443;-95
2021/05/02 17:15:12;;;;;;;18.92;13.20;;;4.50;99.90;;;;;;4941408;29;20506;-95
2021/05/02 17:17:39;;;;;;;20.92;15.68;;;4.50;99.90;;;;;;4939350;29;20466;-96
2021/05/02 17:20:07;;;;;;;21.10;16.27;;;4.50;99.90;;;;;;4939565;29;20502;-94
2021/05/02 17:22:35;;;;;;;21.83;16.73;;;4.50;99.90;;;;;;4939129;29;20945;-95
2021/05/02 17:25:06;;;;;;;21.20;15.82;;;4.50;99.90;;;;;;4940846;29;20411;-94
2021/05/02 17:27:36;;;;;;;21.60;16.63;;;4.50;99.90;;;;;;4941165;29;20427;-95
2021/05/02 17:30:16;;;;;;;21.75;15.45;;;4.50;99.90;;;;;;4943754;29;20934;-96
2021/05/02 17:32:43;;;;;;;22.63;16.57;;;4.50;99.90;;;;;;4957675;28;20483;-95
2021/05/02 17:35:13;;;;;;;22.08;17.33;;;4.50;99.90;;;;;;4961238;28;20412;-95
2021/05/02 17:37:41;;;;;;;22.52;16.48;;;4.40;99.90;;;;;;4958688;28;20451;-94
2021/05/02 17:40:11;;;;;;;22.97;17.57;;;4.40;99.90;;;;;;4959194;28;20466;-95
2021/05/02 17:42:38;;;;;;;25.20;17.30;;;4.40;99.90;;;;;;4940314;29;20497;-95
2021/05/02 17:45:08;;;;;;;24.00;17.85;;;4.40;99.90;;;;;;4940308;29;20435;-95
2021/05/02 17:47:36;;;;;;;24.30;19.05;;;4.30;99.90;;;;;;4938462;29;20435;-94
2021/05/02 17:50:09;;;;;;;24.70;19.15;;;4.30;99.90;;;;;;4939830;29;20998;-95
2021/05/02 17:52:37;;;;;;;25.52;19.75;;;4.30;99.90;;;;;;4939225;29;20516;-96
2021/05/02 17:59:00;;;;;;;31.50;21.90;;;4.20;99.90;;;;;;4970431;28;20549;-95
2021/05/02 18:01:31;;;;;;;29.95;22.10;;;4.10;99.90;;;;;;4938608;29;20431;-96
2021/05/02 18:03:58;;;;;;;28.77;22.33;;;4.10;99.90;;;;;;4939630;29;20424;-96
2021/05/02 18:06:29;;;;;;;33.70;22.00;;;4.00;99.90;;;;;;4943288;29;20430;-95
2021/05/02 18:11:27;;;;;;;29.85;22.80;;;4.10;99.90;;;;;;5142233;23;20442;-95
2021/05/02 18:13:55;;;;;;;28.30;22.70;;;4.00;99.90;;;;;;4938850;29;20423;-95
2021/05/02 18:16:22;;;;;;;31.80;23.23;;;4.10;99.90;;;;;;4940587;28;20431;-92
2021/05/02 18:21:27;;;;;;;31.92;23.20;;;4.20;99.90;;;;;;4959644;23;20491;-94
2021/05/02 18:23:54;;;;;;;31.13;24.00;;;4.00;99.90;;;;;;4939714;29;20518;-95
2021/05/02 18:26:21;;;;;;;33.10;24.25;;;4.00;99.90;;;;;;4954138;29;20467;-94
2021/05/02 18:28:52;;;;;;;34.90;25.25;;;4.00;99.90;;;;;;4951400;29;20458;-95
2021/05/02 18:31:27;;;;;;;35.97;25.98;;;3.90;99.90;;;;;;4939137;29;20506;-96
2021/05/02 18:33:56;;;;;;;34.70;24.77;;;3.90;99.90;;;;;;4938599;29;20431;-96
2021/05/02 18:36:32;;;;;;;35.35;24.80;;;3.90;99.90;;;;;;4959679;29;20430;-94
2021/05/02 18:38:59;;;;;;;37.22;26.65;;;3.90;99.90;;;;;;4938400;29;20522;-95
2021/05/02 18:41:25;;;;;;;40.20;29.63;;;3.90;99.90;;;;;;4940952;29;20465;-94
2021/05/02 18:44:10;;;;;;;41.35;28.55;;;3.80;99.90;;;;;;4941239;29;20445;-95
2021/05/02 18:46:41;;;;;;;41.08;28.88;;;3.80;99.90;;;;;;4943871;29;20449;-96
2021/05/02 18:49:09;;;;;;;39.60;28.70;;;3.90;99.90;;;;;;4928934;29;20422;-94
2021/05/02 18:55:27;;;;;;;36.47;27.45;;;4.00;99.90;;;;;;4960926;29;20928;-95
2021/05/02 18:58:02;;;;;;;38.55;28.67;;;4.00;99.90;;;;;;4941350;29;20883;-95
2021/05/02 19:00:29;;;;;;;40.17;28.33;;;4.10;99.90;;;;;;4941820;29;20428;-94
2021/05/02 19:02:57;;;;;;;41.80;29.63;;;4.10;99.90;;;;;;4956830;29;20441;-95
2021/05/02 19:05:25;;;;;;;42.57;30.30;;;4.00;99.90;;;;;;4961228;28;20517;-94
2021/05/02 19:07:56;;;;;;;45.80;32.97;;;4.00;99.90;;;;;;4925096;29;20435;-94
2021/05/02 19:10:25;;;;;;;43.17;30.87;;;4.00;99.90;;;;;;4944617;29;20421;-95
2021/05/02 19:12:52;;;;;;;44.85;32.90;;;4.10;99.90;;;;;;4941031;29;20443;-95
2021/05/02 19:15:20;;;;;;;44.60;32.78;;;4.10;99.90;;;;;;4942081;29;20792;-94
2021/05/02 19:17:49;;;;;;;45.20;32.97;;;4.10;99.90;;;;;;4941698;29;20442;-95
2021/05/02 19:20:17;;;;;;;45.22;32.45;;;4.10;99.90;;;;;;4941176;29;20443;-94
2021/05/02 19:22:44;;;;;;;49.03;33.43;;;4.20;99.90;;;;;;4940745;29;20422;-94
2021/05/02 19:25:13;;;;;;;50.10;34.00;;;4.10;99.90;;;;;;4940022;29;20439;-93
2021/05/02 19:27:40;;;;;;;46.95;33.88;;;4.20;99.90;;;;;;4938399;29;20446;-94
2021/05/02 19:30:09;;;;;;;53.53;37.10;;;4.10;99.90;;;;;;4925719;29;20452;-94
2021/05/02 19:32:37;;;;;;;59.78;39.35;;;4.00;99.90;;;;;;4942547;29;20466;-93
2021/05/02 19:35:04;;;;;;;61.72;40.58;;;4.00;99.90;;;;;;4937840;29;20760;-95
2021/05/02 19:37:31;;;;;;;70.15;41.55;;;4.00;99.90;;;;;;4936347;29;20546;-95
2021/05/02 19:39:58;;;;;;;68.13;42.33;;;4.00;99.90;;;;;;4935924;29;20510;-96
2021/05/02 19:42:25;;;;;;;69.75;43.10;;;4.00;99.90;;;;;;4938894;29;20905;-94
2021/05/02 19:44:53;;;;;;;79.10;45.63;;;4.00;99.90;;;;;;4956922;29;20417;-95
2021/05/02 19:47:24;;;;;;;81.55;47.05;;;3.90;99.90;;;;;;4939809;29;20463;-95
2021/05/02 19:49:50;;;;;;;89.15;49.28;;;3.90;99.90;;;;;;4942219;28;20436;-96
2021/05/02 19:52:19;;;;;;;91.53;50.63;;;4.00;99.90;;;;;;4949370;29;20466;-95
2021/05/02 19:54:54;;;;;;;94.32;53.78;;;4.00;99.90;;;;;;4956794;29;20750;-95
2021/05/02 19:57:20;;;;;;;92.43;51.85;;;3.90;99.90;;;;;;5062053;23;20456;-95
2021/05/02 19:59:47;;;;;;;101.90;56.47;;;3.90;99.90;;;;;;4937701;29;20535;-96
2021/05/02 20:03:01;;;;;;;115.00;58.20;;;3.80;99.90;;;;;;4958398;28;20452;-94
2021/05/02 20:09:54;;;;;;;128.55;62.13;;;3.70;99.90;;;;;;4935326;29;20507;-96
2021/05/02 20:13:09;;;;;;;130.90;62.55;;;3.70;99.90;;;;;;4935417;29;20429;-95
2021/05/02 20:16:06;;;;;;;139.10;65.32;;;3.60;99.90;;;;;;4912645;29;20454;-95
2021/05/02 20:19:02;;;;;;;151.43;68.93;;;3.60;99.90;;;;;;4940441;29;20453;-94
2021/05/02 20:21:36;;;;;;;163.17;71.43;;;3.50;99.90;;;;;;4939558;29;20449;-95
2021/05/02 20:24:51;;;;;;;159.23;72.60;;;3.50;99.90;;;;;;4922519;29;20400;-96
2021/05/02 20:28:00;;;;;;;153.07;69.03;;;3.50;99.90;;;;;;5050249;23;20450;-95
2021/05/02 20:39:29;;;;;;;90.57;53.45;;;3.60;99.90;;;;;;4957911;29;20566;-96
2021/05/02 20:42:31;;;;;;;88.18;53.33;;;3.50;99.90;;;;;;4945115;29;20411;-95
2021/05/02 20:53:42;;;;;;;119.88;61.28;;;3.50;99.90;;;;;;4938306;29;20469;-95
2021/05/02 20:56:44;;;;;;;220.80;70.33;;;3.40;99.90;;;;;;5266128;23;20404;-95
2021/05/02 20:59:49;;;;;;;1255.78;125.25;;;3.40;99.90;;;;;;4946287;29;20407;-95
2021/05/02 21:05:17;;;;;;;847.65;98.07;;;3.40;99.90;;;;;;5278425;23;20443;-96
2021/05/02 21:08:09;;;;;;;272.33;78.38;;;3.50;99.90;;;;;;4935771;29;20447;-95
2021/05/02 21:10:55;;;;;;;133.55;64.15;;;3.40;99.90;;;;;;4943890;28;20428;-95
2021/05/02 21:13:32;;;;;;;133.98;67.35;;;3.40;99.90;;;;;;4941719;29;20517;-95
2021/05/02 21:16:23;;;;;;;112.82;59.42;;;3.40;99.90;;;;;;4944830;29;20413;-96
2021/05/02 21:18:50;;;;;;;106.80;57.60;;;3.40;99.90;;;;;;4950307;29;20436;-96
2021/05/02 21:21:22;;;;;;;83.75;51.05;;;3.40;99.90;;;;;;4949515;29;20427;-96